createdAt,value
2024-04-21T00:02:19.435Z,4.57
2024-04-21T00:04:46.103Z,4.59
2024-04-21T00:07:12.718Z,4.49
2024-04-21T00:09:39.389Z,4.30
2024-04-21T00:12:06.355Z,4.28
2024-04-21T00:14:32.927Z,4.23
2024-04-21T00:17:05.607Z,4.18
2024-04-21T00:19:32.241Z,4.14
2024-04-21T00:21:58.890Z,4.15
2024-04-21T00:24:29.523Z,4.14
2024-04-21T00:27:06.249Z,4.12
2024-04-21T00:29:32.786Z,4.13
2024-04-21T00:32:02.627Z,4.08
2024-04-21T00:34:29.399Z,3.94
2024-04-21T00:36:56.023Z,3.91
2024-04-21T00:39:22.593Z,3.98
2024-04-21T00:41:49.173Z,4.02
2024-04-21T00:44:15.744Z,4.06
2024-04-21T00:46:42.346Z,4.07
2024-04-21T00:49:12.642Z,4.06
2024-04-21T00:51:39.492Z,4.01
2024-04-21T00:54:06.390Z,4.05
2024-04-21T00:56:33.378Z,4.09
2024-04-21T00:59:01.438Z,4.10
2024-04-21T01:01:28.170Z,4.13
2024-04-21T01:03:54.990Z,4.15
2024-04-21T01:06:21.690Z,4.09
2024-04-21T01:08:48.636Z,4.06
2024-04-21T01:11:27.340Z,4.04
2024-04-21T01:13:53.931Z,3.98
2024-04-21T01:16:23.804Z,3.99
2024-04-21T01:18:50.751Z,3.99
2024-04-21T01:21:17.448Z,3.98
2024-04-21T01:24:00.625Z,4.00
2024-04-21T01:26:30.739Z,4.03
2024-04-21T01:28:57.264Z,4.01
2024-04-21T01:31:30.154Z,4.03
2024-04-21T01:34:01.993Z,4.04
2024-04-21T01:36:39.360Z,4.05
2024-04-21T01:39:05.925Z,4.06
2024-04-21T01:41:32.534Z,4.05
2024-04-21T01:43:59.316Z,4.04
2024-04-21T01:46:25.852Z,4.02
2024-04-21T01:48:52.469Z,3.98
2024-04-21T01:51:19.101Z,3.95
2024-04-21T01:53:45.663Z,3.94
2024-04-21T01:56:12.202Z,3.93
2024-04-21T01:58:38.820Z,3.89
2024-04-21T02:01:05.485Z,3.87
2024-04-21T02:03:32.240Z,3.85
2024-04-21T02:06:07.770Z,3.86
2024-04-21T02:08:34.332Z,3.84
2024-04-21T02:11:00.952Z,3.85
2024-04-21T02:13:27.501Z,3.84
2024-04-21T02:15:54.590Z,3.85
2024-04-21T02:18:21.225Z,3.85
2024-04-21T02:20:47.801Z,3.84
2024-04-21T02:23:14.373Z,3.83
2024-04-21T02:25:40.916Z,3.82
2024-04-21T02:28:07.528Z,3.82
2024-04-21T02:30:34.133Z,3.82
2024-04-21T02:33:03.024Z,3.82
2024-04-21T02:35:29.703Z,3.83
2024-04-21T02:37:56.437Z,3.85
2024-04-21T02:40:23.291Z,3.89
2024-04-21T02:42:52.764Z,3.87
2024-04-21T02:45:24.994Z,3.89
2024-04-21T02:47:54.611Z,3.89
2024-04-21T02:50:23.791Z,3.85
2024-04-21T02:52:51.898Z,3.78
2024-04-21T02:55:22.110Z,3.70
2024-04-21T02:57:48.943Z,3.58
2024-04-21T03:00:15.601Z,3.42
2024-04-21T03:02:45.246Z,3.26
2024-04-21T03:05:11.827Z,3.21
2024-04-21T03:08:04.426Z,3.21
2024-04-21T03:10:31.325Z,3.27
2024-04-21T03:12:57.944Z,3.22
2024-04-21T03:15:24.556Z,3.13
2024-04-21T03:17:51.700Z,3.15
2024-04-21T03:20:18.340Z,3.09
2024-04-21T03:22:45.105Z,3.07
2024-04-21T03:25:11.751Z,3.03
2024-04-21T03:27:38.345Z,3.02
2024-04-21T03:30:05.554Z,3.02
2024-04-21T03:32:32.144Z,2.98
2024-04-21T03:34:58.821Z,2.97
2024-04-21T03:37:25.730Z,2.96
2024-04-21T03:39:57.558Z,2.93
2024-04-21T03:42:24.394Z,2.91
2024-04-21T03:44:51.090Z,2.91
2024-04-21T03:47:28.062Z,2.90
2024-04-21T03:50:19.758Z,2.92
2024-04-21T03:52:46.521Z,2.94
2024-04-21T03:55:16.280Z,2.95
2024-04-21T03:57:42.871Z,2.98
2024-04-21T04:00:10.000Z,3.00
2024-04-21T04:02:36.670Z,3.06
2024-04-21T04:05:03.395Z,3.08
2024-04-21T04:07:29.938Z,3.11
2024-04-21T04:09:56.434Z,3.13
2024-04-21T04:12:22.981Z,3.16
2024-04-21T04:14:50.173Z,3.17
2024-04-21T04:17:16.693Z,3.18
2024-04-21T04:19:43.261Z,3.25
2024-04-21T04:22:09.856Z,3.22
2024-04-21T04:24:36.469Z,3.25
2024-04-21T04:27:03.060Z,3.27
2024-04-21T04:29:29.611Z,3.31
2024-04-21T04:31:56.182Z,3.31
2024-04-21T04:34:22.741Z,3.35
2024-04-21T04:36:49.368Z,3.34
2024-04-21T04:39:15.911Z,3.31
2024-04-21T04:41:42.446Z,3.30
2024-04-21T04:44:08.971Z,3.32
2024-04-21T04:46:35.537Z,3.33
2024-04-21T04:49:02.134Z,3.33
2024-04-21T04:51:28.648Z,3.34
2024-04-21T04:53:55.197Z,3.36
2024-04-21T04:56:21.796Z,3.33
2024-04-21T04:58:48.343Z,3.35
2024-04-21T05:01:21.104Z,3.35
2024-04-21T05:03:47.861Z,3.36
2024-04-21T05:06:20.495Z,3.36
2024-04-21T05:08:50.136Z,3.39
2024-04-21T05:11:16.736Z,3.39
2024-04-21T05:13:43.237Z,3.40
2024-04-21T05:16:09.808Z,3.40
2024-04-21T05:18:36.432Z,3.42
2024-04-21T05:21:03.819Z,3.43
2024-04-21T05:23:32.225Z,3.46
2024-04-21T05:25:58.748Z,3.45
2024-04-21T05:28:36.686Z,3.50
2024-04-21T05:31:11.834Z,3.52
2024-04-21T05:33:38.792Z,3.46
2024-04-21T05:36:05.510Z,3.48
2024-04-21T05:38:32.069Z,3.48
2024-04-21T05:40:58.617Z,3.49
2024-04-21T05:43:25.179Z,3.52
2024-04-21T05:46:02.116Z,3.53
2024-04-21T05:48:28.717Z,3.54
2024-04-21T05:50:55.368Z,3.53
2024-04-21T05:53:22.078Z,3.53
2024-04-21T05:55:48.817Z,3.60
2024-04-21T05:58:15.409Z,3.65
2024-04-21T06:00:41.954Z,3.69
2024-04-21T06:03:08.934Z,3.70
2024-04-21T06:05:44.515Z,3.72
2024-04-21T06:08:11.111Z,3.75
2024-04-21T06:10:38.667Z,3.73
2024-04-21T06:13:08.725Z,3.74
2024-04-21T06:15:36.453Z,3.77
2024-04-21T06:18:03.198Z,3.78
2024-04-21T06:20:52.110Z,3.75
2024-04-21T06:23:17.207Z,3.83
2024-04-21T06:25:43.770Z,3.94
2024-04-21T06:28:10.820Z,3.88
2024-04-21T06:30:45.849Z,3.81
2024-04-21T06:33:18.615Z,3.79
2024-04-21T06:35:46.055Z,3.69
2024-04-21T06:38:12.712Z,3.69
2024-04-21T06:40:49.718Z,3.76
2024-04-21T06:43:16.425Z,3.81
2024-04-21T06:45:47.765Z,3.85
2024-04-21T06:48:15.182Z,3.85
2024-04-21T06:50:46.224Z,3.83
2024-04-21T06:53:12.802Z,3.89
2024-04-21T06:55:39.836Z,3.87
2024-04-21T06:58:06.478Z,3.85
2024-04-21T07:00:33.236Z,3.90
2024-04-21T07:03:00.961Z,3.91
2024-04-21T07:05:27.648Z,3.98
2024-04-21T07:07:54.198Z,4.07
2024-04-21T07:10:20.836Z,4.08
2024-04-21T07:12:47.412Z,4.12
2024-04-21T07:15:14.054Z,4.13
2024-04-21T07:17:40.720Z,4.16
2024-04-21T07:20:07.689Z,4.15
2024-04-21T07:22:39.242Z,4.24
2024-04-21T07:25:16.018Z,4.34
2024-04-21T07:27:46.335Z,4.38
2024-04-21T07:30:15.731Z,4.43
2024-04-21T07:32:42.347Z,4.33
2024-04-21T07:35:08.931Z,4.35
2024-04-21T07:37:35.787Z,4.43
2024-04-21T07:40:02.509Z,4.39
2024-04-21T07:42:29.156Z,4.41
2024-04-21T07:44:55.683Z,4.43
2024-04-21T07:47:22.638Z,4.52
2024-04-21T07:49:49.337Z,4.66
2024-04-21T07:52:15.939Z,4.81
2024-04-21T07:54:42.601Z,4.91
2024-04-21T07:57:12.473Z,4.98
2024-04-21T07:59:48.157Z,5.09
2024-04-21T08:02:14.796Z,5.19
2024-04-21T08:04:41.398Z,5.27
2024-04-21T08:07:08.129Z,5.23
2024-04-21T08:09:36.016Z,5.20
2024-04-21T08:12:03.241Z,5.18
2024-04-21T08:14:30.059Z,5.23
2024-04-21T08:16:58.100Z,5.27
2024-04-21T08:19:24.868Z,5.30
2024-04-21T08:21:51.531Z,5.29
2024-04-21T08:24:18.129Z,5.24
2024-04-21T08:26:59.809Z,5.24
2024-04-21T08:29:26.361Z,5.35
2024-04-21T08:31:56.544Z,5.56
2024-04-21T08:34:25.243Z,5.85
2024-04-21T08:36:51.952Z,5.96
2024-04-21T08:39:19.894Z,6.00
2024-04-21T08:41:48.332Z,6.09
2024-04-21T08:44:15.989Z,6.21
2024-04-21T08:46:43.659Z,6.40
2024-04-21T08:49:10.703Z,6.58
2024-04-21T08:51:40.094Z,6.64
2024-04-21T08:54:06.854Z,6.60
2024-04-21T08:56:34.067Z,6.52
2024-04-21T08:59:03.295Z,6.52
2024-04-21T09:01:30.393Z,6.46
2024-04-21T09:03:57.881Z,6.51
2024-04-21T09:06:26.746Z,6.49
2024-04-21T09:08:54.797Z,6.53
2024-04-21T09:11:21.867Z,6.56
2024-04-21T09:13:50.033Z,6.68
2024-04-21T09:16:16.818Z,6.81
2024-04-21T09:18:43.724Z,6.89
2024-04-21T09:21:10.431Z,6.91
2024-04-21T09:23:38.052Z,6.95
2024-04-21T09:26:04.645Z,6.98
2024-04-21T09:28:31.387Z,7.02
2024-04-21T09:30:58.325Z,7.08
2024-04-21T09:33:26.782Z,7.22
2024-04-21T09:35:58.586Z,7.26
2024-04-21T09:38:25.191Z,7.49
2024-04-21T09:40:56.212Z,7.91
2024-04-21T09:43:23.619Z,8.09
2024-04-21T09:45:52.039Z,8.43
2024-04-21T09:48:22.780Z,8.60
2024-04-21T09:50:50.601Z,8.68
2024-04-21T09:53:23.786Z,8.84
2024-04-21T09:56:02.943Z,8.99
2024-04-21T09:58:33.918Z,8.93
2024-04-21T10:01:03.073Z,8.82
2024-04-21T10:03:35.771Z,8.72
2024-04-21T10:06:03.334Z,8.89
2024-04-21T10:08:30.081Z,9.01
2024-04-21T10:10:56.838Z,8.99
2024-04-21T10:13:23.815Z,9.03
2024-04-21T10:15:51.369Z,8.97
2024-04-21T10:18:25.011Z,9.02
2024-04-21T10:20:52.482Z,9.15
2024-04-21T10:23:21.089Z,9.25
2024-04-21T10:25:48.695Z,9.72
2024-04-21T10:28:26.817Z,10.15
2024-04-21T10:31:06.654Z,10.42
2024-04-21T10:33:33.706Z,10.30
2024-04-21T10:36:00.313Z,10.12
2024-04-21T10:38:26.926Z,10.04
2024-04-21T10:40:57.663Z,10.11
2024-04-21T10:43:30.418Z,10.04
2024-04-21T10:45:59.885Z,10.11
2024-04-21T10:48:27.042Z,10.12
2024-04-21T10:50:54.468Z,10.57
2024-04-21T10:53:21.239Z,10.82
2024-04-21T10:55:51.017Z,10.95
2024-04-21T10:58:20.598Z,11.05
2024-04-21T11:00:47.204Z,11.44
2024-04-21T11:03:14.009Z,11.53
2024-04-21T11:06:01.734Z,11.40
2024-04-21T11:08:31.650Z,11.19
2024-04-21T11:10:59.116Z,11.00
2024-04-21T11:13:26.941Z,10.95
2024-04-21T11:15:53.703Z,10.72
2024-04-21T11:18:20.695Z,10.76
2024-04-21T11:20:47.696Z,11.06
2024-04-21T11:23:17.215Z,11.16
2024-04-21T11:25:53.765Z,10.91
2024-04-21T11:28:24.079Z,10.68
2024-04-21T11:31:04.691Z,10.61
2024-04-21T11:33:35.626Z,10.52
2024-04-21T11:36:09.246Z,10.37
2024-04-21T11:38:36.977Z,10.71
2024-04-21T11:41:03.941Z,11.16
2024-04-21T11:43:30.884Z,11.33
2024-04-21T11:48:52.513Z,10.91
2024-04-21T11:51:20.830Z,10.82
2024-04-21T11:53:49.083Z,10.66
2024-04-21T11:56:15.625Z,10.58
2024-04-21T11:58:42.177Z,10.53
2024-04-21T12:01:09.020Z,10.77
2024-04-21T12:03:47.999Z,10.88
2024-04-21T12:06:15.400Z,10.96
2024-04-21T12:08:41.917Z,10.78
2024-04-21T12:11:10.001Z,10.61
2024-04-21T12:13:38.037Z,10.94
2024-04-21T12:16:05.114Z,11.46
2024-04-21T12:18:31.681Z,11.82
2024-04-21T12:20:58.596Z,11.85
2024-04-21T12:23:25.138Z,11.76
2024-04-21T12:25:56.432Z,11.58
2024-04-21T12:28:23.082Z,11.29
2024-04-21T12:30:50.084Z,11.01
2024-04-21T12:33:16.642Z,10.91
2024-04-21T12:35:43.742Z,11.08
2024-04-21T12:38:10.372Z,11.52
2024-04-21T12:40:37.078Z,11.50
2024-04-21T12:43:03.813Z,11.34
2024-04-21T12:45:36.424Z,11.33
2024-04-21T12:48:03.308Z,11.22
2024-04-21T12:50:30.069Z,11.16
2024-04-21T12:52:56.662Z,11.30
2024-04-21T12:55:23.327Z,11.59
2024-04-21T12:57:49.983Z,11.70
2024-04-21T13:00:16.674Z,11.60
2024-04-21T13:02:43.234Z,11.58
2024-04-21T13:05:10.029Z,11.53
2024-04-21T13:07:36.733Z,11.55
2024-04-21T13:10:03.434Z,11.43
2024-04-21T13:12:30.671Z,11.39
2024-04-21T13:14:57.498Z,11.37
2024-04-21T13:17:24.145Z,11.29
2024-04-21T13:19:50.785Z,11.23
2024-04-21T13:22:17.416Z,11.24
2024-04-21T13:24:51.452Z,11.17
2024-04-21T13:27:18.117Z,11.20
2024-04-21T13:29:46.171Z,11.19
2024-04-21T13:32:12.896Z,11.11
2024-04-21T13:34:48.631Z,11.16
2024-04-21T13:37:15.173Z,11.35
2024-04-21T13:39:41.737Z,11.29
2024-04-21T13:42:08.364Z,10.79
2024-04-21T13:44:42.474Z,10.36
2024-04-21T13:47:09.044Z,10.12
2024-04-21T13:49:35.934Z,9.99
2024-04-21T13:52:02.676Z,9.70
2024-04-21T13:54:29.226Z,9.67
2024-04-21T13:56:55.887Z,9.62
2024-04-21T13:59:22.414Z,9.45
2024-04-21T14:01:50.011Z,9.39
2024-04-21T14:04:16.705Z,9.28
2024-04-21T14:06:43.277Z,9.14
2024-04-21T14:09:09.898Z,9.25
2024-04-21T14:11:36.523Z,9.31
2024-04-21T14:14:03.069Z,9.41
2024-04-21T14:16:31.445Z,9.50
2024-04-21T14:18:58.916Z,9.54
2024-04-21T14:21:26.727Z,9.64
2024-04-21T14:23:53.353Z,9.67
2024-04-21T14:26:20.092Z,9.76
2024-04-21T14:28:47.259Z,9.82
2024-04-21T14:31:14.092Z,9.90
2024-04-21T14:33:42.997Z,9.88
2024-04-21T14:36:09.761Z,9.92
2024-04-21T14:38:36.446Z,9.96
2024-04-21T14:41:05.700Z,9.93
2024-04-21T14:43:33.817Z,9.90
2024-04-21T14:46:00.346Z,9.91
2024-04-21T14:48:27.173Z,9.89
2024-04-21T14:51:01.854Z,9.88
2024-04-21T14:53:31.574Z,9.88
2024-04-21T14:56:04.959Z,9.73
2024-04-21T14:58:31.577Z,9.68
2024-04-21T15:00:58.321Z,9.62
2024-04-21T15:03:25.286Z,9.59
2024-04-21T15:05:51.994Z,9.60
2024-04-21T15:08:18.595Z,9.65
2024-04-21T15:10:45.389Z,9.72
2024-04-21T15:13:12.340Z,9.75
2024-04-21T15:15:38.931Z,9.70
2024-04-21T15:18:05.746Z,9.63
2024-04-21T15:20:32.305Z,9.62
2024-04-21T15:23:01.393Z,9.72
2024-04-21T15:25:28.154Z,9.91
2024-04-21T15:27:54.982Z,9.95
2024-04-21T15:30:21.748Z,9.68
2024-04-21T15:32:48.770Z,9.30
2024-04-21T15:35:15.801Z,9.12
2024-04-21T15:37:43.221Z,9.06
2024-04-21T15:40:10.836Z,9.01
2024-04-21T15:42:39.604Z,8.89
2024-04-21T15:45:06.509Z,8.59
2024-04-21T15:47:33.098Z,8.39
2024-04-21T15:50:02.998Z,8.00
2024-04-21T15:52:30.521Z,7.68
2024-04-21T15:54:57.379Z,7.60
2024-04-21T15:57:24.242Z,7.48
2024-04-21T15:59:50.794Z,7.41
2024-04-21T16:02:18.594Z,7.42
2024-04-21T16:04:45.573Z,7.39
2024-04-21T16:07:14.652Z,7.41
2024-04-21T16:09:44.359Z,7.36
2024-04-21T16:12:10.910Z,7.26
2024-04-21T16:14:37.455Z,7.27
2024-04-21T16:17:04.197Z,7.31
2024-04-21T16:19:30.929Z,7.30
2024-04-21T16:21:57.680Z,7.23
2024-04-21T16:24:24.278Z,7.41
2024-04-21T16:26:50.834Z,7.53
2024-04-21T16:29:17.401Z,7.44
2024-04-21T16:31:45.966Z,7.40
2024-04-21T16:34:13.047Z,7.49
2024-04-21T16:36:40.076Z,7.54
2024-04-21T16:39:07.221Z,7.53
2024-04-21T16:41:34.163Z,7.67
2024-04-21T16:44:01.110Z,7.87
2024-04-21T16:47:00.830Z,8.09
2024-04-21T16:49:31.011Z,7.97
2024-04-21T16:52:09.855Z,7.77
2024-04-21T16:54:37.108Z,7.63
2024-04-21T16:57:18.053Z,7.49
2024-04-21T16:59:48.301Z,7.55
2024-04-21T17:02:15.258Z,7.49
2024-04-21T17:04:51.780Z,7.48
2024-04-21T17:07:18.963Z,7.48
2024-04-21T17:09:49.258Z,7.57
2024-04-21T17:12:20.967Z,7.52
2024-04-21T17:14:47.693Z,7.53
2024-04-21T17:17:16.865Z,7.52
2024-04-21T17:19:43.425Z,7.51
2024-04-21T17:22:10.288Z,7.54
2024-04-21T17:24:37.062Z,7.70
2024-04-21T17:27:04.088Z,7.77
2024-04-21T17:29:30.587Z,7.90
2024-04-21T17:31:57.155Z,7.99
2024-04-21T17:34:24.896Z,8.05
2024-04-21T17:36:51.581Z,8.12
2024-04-21T17:39:18.187Z,8.15
2024-04-21T17:41:44.726Z,8.17
2024-04-21T17:44:11.287Z,8.12
2024-04-21T17:46:38.275Z,8.01
2024-04-21T17:49:05.036Z,7.97
2024-04-21T17:51:37.766Z,7.86
2024-04-21T17:54:05.922Z,7.80
2024-04-21T17:56:34.496Z,7.77
2024-04-21T18:01:32.560Z,7.68
2024-04-21T18:04:01.166Z,7.66
2024-04-21T18:06:29.871Z,7.63
2024-04-21T18:08:56.495Z,7.61
2024-04-21T18:14:07.153Z,7.58
2024-04-21T18:16:42.923Z,7.48
2024-04-21T18:19:09.455Z,7.45
2024-04-21T18:21:40.822Z,7.36
2024-04-21T18:24:07.539Z,7.31
2024-04-21T18:26:36.632Z,7.27
2024-04-21T18:29:03.145Z,7.25
2024-04-21T18:31:29.754Z,7.20
2024-04-21T18:33:56.354Z,7.17
2024-04-21T18:36:23.101Z,7.14
2024-04-21T18:38:52.190Z,7.13
2024-04-21T18:41:22.078Z,7.13
2024-04-21T18:43:48.834Z,7.14
2024-04-21T18:46:18.110Z,7.10
2024-04-21T18:48:44.712Z,7.09
2024-04-21T18:51:11.289Z,7.10
2024-04-21T18:53:37.822Z,7.04
2024-04-21T18:56:15.282Z,7.02
2024-04-21T18:58:42.065Z,7.00
2024-04-21T19:01:09.565Z,6.95
2024-04-21T19:03:36.327Z,6.93
2024-04-21T19:06:09.524Z,6.87
2024-04-21T19:08:36.142Z,6.85
2024-04-21T19:11:03.091Z,6.83
2024-04-21T19:13:30.182Z,6.83
2024-04-21T19:16:01.698Z,6.82
2024-04-21T19:18:28.878Z,6.82
2024-04-21T19:20:55.804Z,6.83
2024-04-21T19:23:23.346Z,6.84
2024-04-21T19:25:50.153Z,6.83
2024-04-21T19:28:17.038Z,6.84
2024-04-21T19:30:43.740Z,6.87
2024-04-21T19:33:11.512Z,6.85
2024-04-21T19:38:20.172Z,6.73
2024-04-21T19:40:49.347Z,6.69
2024-04-21T19:43:17.326Z,6.64
2024-04-21T19:45:44.018Z,6.63
2024-04-21T19:48:11.589Z,6.62
2024-04-21T19:50:39.319Z,6.60
2024-04-21T19:53:05.944Z,6.60
2024-04-21T19:55:32.681Z,6.56
2024-04-21T19:58:11.555Z,6.52
2024-04-21T20:00:46.814Z,6.48
2024-04-21T20:03:13.904Z,6.44
2024-04-21T20:05:41.037Z,6.41
2024-04-21T20:08:17.636Z,6.38
2024-04-21T20:10:44.212Z,6.35
2024-04-21T20:13:11.074Z,6.32
2024-04-21T20:15:56.522Z,6.30
2024-04-21T20:18:36.266Z,6.26
2024-04-21T20:21:04.121Z,6.17
2024-04-21T20:23:31.720Z,6.13
2024-04-21T20:26:00.639Z,6.08
2024-04-21T20:28:27.509Z,6.07
2024-04-21T20:30:58.521Z,6.06
2024-04-21T20:33:32.016Z,6.05
2024-04-21T20:35:58.600Z,6.00
2024-04-21T20:38:34.113Z,5.96
2024-04-21T20:41:00.905Z,5.94
2024-04-21T20:43:27.651Z,5.89
2024-04-21T20:45:54.222Z,5.88
2024-04-21T20:48:20.802Z,5.87
2024-04-21T20:50:47.799Z,5.83
2024-04-21T20:53:14.350Z,5.81
2024-04-21T20:55:42.641Z,5.77
2024-04-21T20:58:09.517Z,5.77
2024-04-21T21:00:37.876Z,5.76
2024-04-21T21:03:04.643Z,5.73
2024-04-21T21:05:31.137Z,5.67
2024-04-21T21:07:57.686Z,5.65
2024-04-21T21:10:24.343Z,5.64
2024-04-21T21:12:50.918Z,5.63
2024-04-21T21:15:17.436Z,5.60
2024-04-21T21:17:44.052Z,5.57
2024-04-21T21:20:10.937Z,5.55
2024-04-21T21:22:37.543Z,5.49
2024-04-21T21:25:04.650Z,5.44
2024-04-21T21:27:31.364Z,5.43
2024-04-21T21:29:57.936Z,5.42
2024-04-21T21:32:24.608Z,5.40
2024-04-21T21:34:51.260Z,5.35
2024-04-21T21:37:17.940Z,5.35
2024-04-21T21:39:48.210Z,5.31
2024-04-21T21:42:14.794Z,5.30
2024-04-21T21:44:41.806Z,5.29
2024-04-21T21:47:08.567Z,5.29
2024-04-21T21:49:35.193Z,5.29
2024-04-21T21:52:02.045Z,5.27
2024-04-21T21:54:28.751Z,5.25
2024-04-21T21:56:55.979Z,5.23
2024-04-21T21:59:23.838Z,5.22
2024-04-21T22:01:50.667Z,5.21
2024-04-21T22:04:17.355Z,5.23
2024-04-21T22:06:43.881Z,5.22
2024-04-21T22:09:10.438Z,5.23
2024-04-21T22:11:37.254Z,5.24
2024-04-21T22:14:06.662Z,5.19
2024-04-21T22:16:35.900Z,5.19
2024-04-21T22:19:05.692Z,5.15
2024-04-21T22:21:32.450Z,5.14
2024-04-21T22:23:59.180Z,5.14
2024-04-21T22:26:26.846Z,5.12
2024-04-21T22:28:54.195Z,5.12
2024-04-21T22:31:20.763Z,5.10
2024-04-21T22:33:47.378Z,5.10
2024-04-21T22:36:13.992Z,5.10
2024-04-21T22:38:41.053Z,5.10
2024-04-21T22:41:07.663Z,5.09
2024-04-21T22:43:34.329Z,5.10
2024-04-21T22:46:09.192Z,5.08
2024-04-21T22:48:37.997Z,5.06
2024-04-21T22:51:06.467Z,5.02
2024-04-21T22:53:33.077Z,5.00
2024-04-21T22:56:05.792Z,4.99
2024-04-21T22:58:41.331Z,4.96
2024-04-21T23:01:08.321Z,4.94
2024-04-21T23:03:36.690Z,4.89
2024-04-21T23:06:03.723Z,4.84
2024-04-21T23:08:32.782Z,4.83
2024-04-21T23:11:03.858Z,4.80
2024-04-21T23:13:30.840Z,4.76
2024-04-21T23:15:57.799Z,4.75
2024-04-21T23:18:24.403Z,4.75
2024-04-21T23:20:51.202Z,4.73
2024-04-21T23:23:17.843Z,4.71
2024-04-21T23:25:44.482Z,4.67
2024-04-21T23:28:11.309Z,4.64
2024-04-21T23:30:37.923Z,4.62
2024-04-21T23:33:04.768Z,4.59
2024-04-21T23:35:31.376Z,4.58
2024-04-21T23:37:57.929Z,4.57
2024-04-21T23:40:27.001Z,4.51
2024-04-21T23:42:53.546Z,4.49
2024-04-21T23:45:20.109Z,4.47
2024-04-21T23:47:46.705Z,4.47
2024-04-21T23:50:13.697Z,4.44
2024-04-21T23:52:40.260Z,4.44
2024-04-21T23:55:07.286Z,4.40
2024-04-21T23:57:33.962Z,4.35
